Time;durP1;ratioP1;P1;durP2;ratioP2;P2;SDS_P1;SDS_P2;PMS_P1;PMS_P2;Temp;Humidity;BMP_temperature;BMP_pressure;BME280_temperature;BME280_humidity;BME280_pressure;Samples;Min_cycle;Max_cycle;Signal;HPM_P1;HPM_P2
2023/01/06 00:00:34;;;;;;;5.60;4.90;;;11.70;99.90;;;;;;5049112;28;20502;-34
2023/01/06 00:03:00;;;;;;;5.47;4.27;;;11.60;99.90;;;;;;5052220;28;20514;-34
2023/01/06 00:05:25;;;;;;;4.77;4.03;;;11.60;99.90;;;;;;5052017;28;21042;-34
2023/01/06 00:07:51;;;;;;;5.13;3.60;;;11.60;99.90;;;;;;5052766;28;20227;-34
2023/01/06 00:10:18;;;;;;;3.70;3.30;;;11.60;99.90;;;;;;5052382;28;20277;-34
2023/01/06 00:12:45;;;;;;;6.30;3.30;;;11.60;99.90;;;;;;5052469;28;20420;-34
2023/01/06 00:15:11;;;;;;;3.80;3.30;;;11.60;99.90;;;;;;5052653;28;20479;-34
2023/01/06 00:17:36;;;;;;;3.40;2.70;;;11.50;99.90;;;;;;5061558;28;20424;-34
2023/01/06 00:20:03;;;;;;;4.10;2.67;;;11.50;99.90;;;;;;5051121;28;20270;-34
2023/01/06 00:22:29;;;;;;;5.30;3.53;;;11.50;99.90;;;;;;5052267;28;20197;-34
2023/01/06 00:24:55;;;;;;;4.30;2.80;;;11.50;99.90;;;;;;5052483;28;20420;-34
2023/01/06 00:27:20;;;;;;;3.60;2.50;;;11.50;99.90;;;;;;5052093;28;20217;-34
2023/01/06 00:29:48;;;;;;;3.37;2.40;;;11.50;99.90;;;;;;5052145;28;20200;-34
2023/01/06 00:32:14;;;;;;;3.57;2.57;;;11.50;99.90;;;;;;5052587;28;20194;-34
2023/01/06 00:34:40;;;;;;;6.07;3.03;;;11.50;99.90;;;;;;5051307;28;20420;-34
2023/01/06 00:37:05;;;;;;;2.30;2.10;;;11.50;99.90;;;;;;5052224;28;20499;-34
2023/01/06 00:39:31;;;;;;;3.93;3.50;;;11.50;99.90;;;;;;5051394;28;20193;-34
2023/01/06 00:42:03;;;;;;;2.57;2.37;;;11.50;99.90;;;;;;5052191;28;20301;-34
2023/01/06 00:44:30;;;;;;;5.00;2.87;;;11.50;99.90;;;;;;5052207;28;20194;-34
2023/01/06 00:46:55;;;;;;;5.80;2.80;;;11.50;99.90;;;;;;5052198;28;20470;-34
2023/01/06 00:49:21;;;;;;;7.00;3.43;;;11.50;99.90;;;;;;5051405;28;20420;-34
2023/01/06 00:51:47;;;;;;;5.17;2.83;;;11.50;99.90;;;;;;5050983;28;20269;-34
2023/01/06 00:54:14;;;;;;;5.93;3.00;;;11.50;99.90;;;;;;5051929;28;20182;-34
2023/01/06 00:56:43;;;;;;;4.33;3.80;;;11.50;99.90;;;;;;5051897;28;20889;-34
2023/01/06 00:59:10;;;;;;;2.63;2.40;;;11.50;99.90;;;;;;5051328;28;20518;-34
2023/01/06 01:01:37;;;;;;;6.63;2.70;;;11.50;99.90;;;;;;5051928;28;20783;-34
2023/01/06 01:04:03;;;;;;;4.90;2.23;;;11.50;99.90;;;;;;5051904;28;20420;-34
2023/01/06 01:06:28;;;;;;;2.73;1.90;;;11.40;99.90;;;;;;5051604;28;20891;-34
2023/01/06 01:08:55;;;;;;;3.40;2.10;;;11.40;99.90;;;;;;5051469;28;20212;-34
2023/01/06 01:14:07;;;;;;;4.60;2.10;;;11.40;99.90;;;;;;5051547;28;20902;-34
2023/01/06 01:16:33;;;;;;;3.87;2.50;;;11.40;99.90;;;;;;5061001;28;20964;-34
2023/01/06 01:18:59;;;;;;;5.53;2.40;;;11.40;99.90;;;;;;5034762;28;20477;-34
2023/01/06 01:21:25;;;;;;;2.23;1.90;;;11.40;99.90;;;;;;5030306;28;20194;-34
2023/01/06 01:23:50;;;;;;;5.40;2.03;;;11.40;99.90;;;;;;5031950;28;20440;-34
2023/01/06 01:26:17;;;;;;;3.80;2.10;;;11.40;99.90;;;;;;5031607;28;20501;-34
2023/01/06 01:28:43;;;;;;;6.73;1.70;;;11.40;99.90;;;;;;5031946;28;20873;-34
2023/01/06 01:31:08;;;;;;;2.80;1.53;;;11.40;99.90;;;;;;5030855;28;20441;-34
2023/01/06 01:33:34;;;;;;;3.00;1.90;;;11.40;99.90;;;;;;5031541;28;20499;-34
2023/01/06 01:36:14;;;;;;;4.93;1.27;;;11.50;99.90;;;;;;5031178;28;20588;-34
2023/01/06 01:38:40;;;;;;;4.63;1.30;;;11.40;99.90;;;;;;5031494;28;20424;-34
2023/01/06 01:41:06;;;;;;;2.60;1.40;;;11.40;99.90;;;;;;5030832;28;20413;-34
2023/01/06 01:44:22;;;;;;;2.90;1.37;;;11.40;99.90;;;;;;5031275;28;20175;-34
2023/01/06 01:46:48;;;;;;;3.37;1.60;;;11.40;99.90;;;;;;5031016;28;20206;-34
2023/01/06 01:49:22;;;;;;;2.17;1.40;;;11.40;99.90;;;;;;5030071;28;20801;-34
2023/01/06 01:51:51;;;;;;;4.43;1.13;;;11.30;99.90;;;;;;5031216;28;20915;-34
2023/01/06 01:54:23;;;;;;;2.13;1.20;;;11.30;99.90;;;;;;5031121;28;20420;-34
2023/01/06 01:56:54;;;;;;;2.20;1.43;;;11.30;99.90;;;;;;5030855;28;21089;-34
2023/01/06 01:59:27;;;;;;;6.60;1.20;;;11.40;99.90;;;;;;5030755;28;20425;-34
2023/01/06 02:01:53;;;;;;;3.43;1.30;;;11.40;99.90;;;;;;5031066;28;20410;-34
2023/01/06 02:04:21;;;;;;;3.23;1.60;;;11.40;99.90;;;;;;5031016;28;20444;-34
2023/01/06 02:06:49;;;;;;;4.13;1.53;;;11.40;99.90;;;;;;5030703;28;20456;-34
2023/01/06 02:09:37;;;;;;;1.53;1.20;;;11.40;99.90;;;;;;5030159;28;20441;-34
2023/01/06 02:12:03;;;;;;;2.67;1.47;;;11.40;99.90;;;;;;5029445;28;20471;-34
2023/01/06 02:14:29;;;;;;;2.83;1.50;;;11.40;99.90;;;;;;5038317;28;20423;-34
2023/01/06 02:17:10;;;;;;;2.60;1.73;;;11.40;99.90;;;;;;5050424;28;20433;-34
2023/01/06 02:19:54;;;;;;;5.20;1.60;;;11.40;99.90;;;;;;5049222;28;20243;-34
2023/01/06 02:22:58;;;;;;;10.50;1.90;;;11.30;99.90;;;;;;5049157;28;20424;-34
2023/01/06 02:25:45;;;;;;;2.80;1.53;;;11.40;99.90;;;;;;5050462;28;20467;-34
2023/01/06 02:28:17;;;;;;;1.50;1.23;;;11.30;99.90;;;;;;5050116;28;20503;-34
2023/01/06 02:31:14;;;;;;;2.13;1.20;;;11.30;99.90;;;;;;5048820;28;20408;-34
2023/01/06 02:34:02;;;;;;;2.40;1.50;;;11.30;99.90;;;;;;5050338;28;20400;-34
2023/01/06 02:36:32;;;;;;;4.17;1.50;;;11.30;99.90;;;;;;5050208;28;20454;-34
2023/01/06 02:39:13;;;;;;;4.30;1.87;;;11.30;99.90;;;;;;5049829;28;20881;-34
2023/01/06 02:41:47;;;;;;;2.30;1.47;;;11.30;99.90;;;;;;5050271;28;20891;-34
2023/01/06 02:44:23;;;;;;;2.40;1.30;;;11.30;99.90;;;;;;5050114;28;20477;-34
2023/01/06 02:46:58;;;;;;;2.00;1.70;;;11.30;99.90;;;;;;5049922;28;20459;-34
2023/01/06 02:49:36;;;;;;;2.37;1.60;;;11.30;99.90;;;;;;5048616;28;20462;-34
2023/01/06 02:52:15;;;;;;;2.10;1.73;;;11.30;99.90;;;;;;5048958;28;20431;-34
2023/01/06 02:54:41;;;;;;;2.00;1.70;;;11.30;99.90;;;;;;5049117;28;20424;-34
2023/01/06 02:57:56;;;;;;;6.43;2.20;;;11.30;99.90;;;;;;5049854;28;20413;-34
2023/01/06 03:00:34;;;;;;;3.43;1.70;;;11.30;99.90;;;;;;5046599;28;20794;-34
2023/01/06 03:03:12;;;;;;;4.27;1.50;;;11.30;99.90;;;;;;5050029;28;20422;-34
2023/01/06 03:05:39;;;;;;;1.90;1.60;;;11.30;99.90;;;;;;5049563;28;20467;-34
2023/01/06 03:08:10;;;;;;;5.23;2.23;;;11.30;99.90;;;;;;5049811;28;20420;-34
2023/01/06 03:10:40;;;;;;;3.00;1.50;;;11.30;99.90;;;;;;5049181;28;20948;-34
2023/01/06 03:13:11;;;;;;;4.77;1.60;;;11.30;99.90;;;;;;5049868;28;20412;-34
2023/01/06 03:15:37;;;;;;;6.40;1.80;;;11.30;99.90;;;;;;5049715;28;20424;-34
2023/01/06 03:18:03;;;;;;;3.93;1.93;;;11.30;99.90;;;;;;5049608;28;20432;-34
2023/01/06 03:20:29;;;;;;;3.77;2.00;;;11.30;99.90;;;;;;5046967;28;20411;-34
2023/01/06 03:22:55;;;;;;;2.53;1.70;;;11.20;99.90;;;;;;5049837;28;20435;-34
2023/01/06 03:25:21;;;;;;;6.07;1.87;;;11.20;99.90;;;;;;5049661;28;20720;-34
2023/01/06 03:27:47;;;;;;;1.83;1.43;;;11.20;99.90;;;;;;5049759;28;20416;-34
2023/01/06 03:30:13;;;;;;;4.10;1.57;;;11.20;99.90;;;;;;5049047;28;20842;-34
2023/01/06 03:32:47;;;;;;;3.67;1.73;;;11.20;99.90;;;;;;5049525;28;20920;-34
2023/01/06 03:35:23;;;;;;;1.70;1.20;;;11.20;99.90;;;;;;5049784;28;20416;-34
2023/01/06 03:38:37;;;;;;;3.20;1.93;;;11.20;99.90;;;;;;5049623;28;20465;-34
2023/01/06 03:41:15;;;;;;;5.97;1.90;;;11.20;99.90;;;;;;5048863;28;20408;-34
2023/01/06 03:44:13;;;;;;;3.20;1.60;;;11.20;99.90;;;;;;5049586;28;20416;-34
2023/01/06 03:46:49;;;;;;;2.13;1.50;;;11.20;99.90;;;;;;5048722;28;20510;-34
2023/01/06 03:49:32;;;;;;;2.33;1.37;;;11.20;99.90;;;;;;5048959;28;20481;-34
2023/01/06 03:52:06;;;;;;;2.27;1.60;;;11.30;99.90;;;;;;5049518;28;20408;-34
2023/01/06 03:54:53;;;;;;;3.20;1.57;;;11.30;99.90;;;;;;5049549;28;20469;-34
2023/01/06 03:57:27;;;;;;;3.63;1.50;;;11.20;99.90;;;;;;5049310;28;20408;-34
2023/01/06 04:00:18;;;;;;;2.40;1.40;;;11.20;99.90;;;;;;5048754;28;20447;-34
2023/01/06 04:02:45;;;;;;;3.50;1.43;;;11.20;99.90;;;;;;5048963;28;20479;-34
2023/01/06 04:05:16;;;;;;;2.53;1.50;;;11.20;99.90;;;;;;5049275;28;20531;-34
2023/01/06 04:07:43;;;;;;;5.00;1.17;;;11.20;99.90;;;;;;5049255;28;20431;-33
2023/01/06 04:10:10;;;;;;;2.73;1.80;;;11.20;99.90;;;;;;5048557;28;20487;-34
2023/01/06 04:12:38;;;;;;;7.77;1.60;;;11.10;99.90;;;;;;5049648;28;20442;-34
2023/01/06 04:15:07;;;;;;;2.80;1.27;;;11.20;99.90;;;;;;5053147;28;20503;-34
2023/01/06 04:17:34;;;;;;;1.50;0.90;;;11.20;99.90;;;;;;5052570;28;20412;-34
2023/01/06 04:20:00;;;;;;;4.73;1.30;;;11.20;99.90;;;;;;5051554;28;20459;-34
2023/01/06 04:22:26;;;;;;;4.70;1.57;;;11.20;99.90;;;;;;5052718;28;20431;-34
2023/01/06 04:24:51;;;;;;;1.67;1.33;;;11.10;99.90;;;;;;5052576;28;20499;-34
2023/01/06 04:27:17;;;;;;;4.10;1.23;;;11.10;99.90;;;;;;5052865;28;20470;-34
2023/01/06 04:29:43;;;;;;;2.93;1.37;;;11.10;99.90;;;;;;5052108;28;20192;-34
2023/01/06 04:32:08;;;;;;;4.87;1.50;;;11.10;99.90;;;;;;5052680;28;20185;-34
2023/01/06 04:34:34;;;;;;;2.27;1.30;;;11.10;99.90;;;;;;5052652;28;20254;-34
2023/01/06 04:37:00;;;;;;;3.33;1.37;;;11.10;99.90;;;;;;5052455;28;20182;-34
2023/01/06 04:39:25;;;;;;;3.03;1.10;;;11.10;99.90;;;;;;5050015;28;20640;-34
2023/01/06 04:41:51;;;;;;;2.80;1.23;;;11.10;99.90;;;;;;5052602;28;20323;-34
2023/01/06 04:44:17;;;;;;;3.37;1.00;;;11.10;99.90;;;;;;5050964;28;20196;-34
2023/01/06 04:46:42;;;;;;;3.70;1.10;;;11.10;99.90;;;;;;5052367;28;20264;-34
2023/01/06 04:49:08;;;;;;;3.87;1.20;;;11.10;99.90;;;;;;5051664;28;20961;-34
2023/01/06 04:51:34;;;;;;;3.07;1.10;;;11.10;99.90;;;;;;5052087;28;20261;-34
2023/01/06 04:53:59;;;;;;;1.73;1.07;;;11.20;99.90;;;;;;5051906;28;20536;-34
2023/01/06 04:56:25;;;;;;;6.90;1.20;;;11.20;99.90;;;;;;5051095;28;20181;-34
2023/01/06 04:58:54;;;;;;;1.63;1.40;;;11.10;99.90;;;;;;5052199;28;20763;-34
2023/01/06 05:01:20;;;;;;;4.33;1.50;;;11.10;99.90;;;;;;5051631;28;20331;-34
2023/01/06 05:03:46;;;;;;;1.37;1.13;;;11.10;99.90;;;;;;5052137;28;20424;-34
2023/01/06 05:06:12;;;;;;;4.00;1.50;;;11.10;99.90;;;;;;5051670;28;20471;-34
2023/01/06 05:08:39;;;;;;;2.57;1.30;;;11.10;99.90;;;;;;5050443;28;20182;-34
2023/01/06 05:11:10;;;;;;;5.10;1.33;;;11.10;99.90;;;;;;5051329;28;20264;-34
2023/01/06 05:13:37;;;;;;;3.27;1.50;;;11.20;99.90;;;;;;5051919;28;20420;-34
2023/01/06 05:16:17;;;;;;;2.90;0.90;;;11.10;99.90;;;;;;5058253;28;20952;-34
2023/01/06 05:18:43;;;;;;;3.03;1.80;;;11.10;99.90;;;;;;5071751;28;20834;-34
2023/01/06 05:21:09;;;;;;;3.50;1.23;;;11.20;99.90;;;;;;5069463;28;20427;-34
2023/01/06 05:23:36;;;;;;;2.77;1.17;;;11.20;99.90;;;;;;5071748;28;20454;-34
2023/01/06 05:26:02;;;;;;;1.77;0.80;;;11.10;99.90;;;;;;5071578;28;20556;-34
2023/01/06 05:28:29;;;;;;;2.77;1.10;;;11.10;99.90;;;;;;5071529;28;20416;-34
2023/01/06 05:31:02;;;;;;;1.07;0.90;;;11.10;99.90;;;;;;5070890;28;20423;-34
2023/01/06 05:33:29;;;;;;;3.53;1.10;;;11.20;99.90;;;;;;5071395;28;20967;-34
2023/01/06 05:36:05;;;;;;;2.40;1.10;;;11.10;99.90;;;;;;5071357;28;20909;-34
2023/01/06 05:38:31;;;;;;;3.67;1.20;;;11.20;99.90;;;;;;5071427;28;20431;-34
2023/01/06 05:40:57;;;;;;;1.33;0.70;;;11.20;99.90;;;;;;5070914;28;20906;-34
2023/01/06 05:43:23;;;;;;;2.03;0.90;;;11.10;99.90;;;;;;5071221;28;20419;-34
2023/01/06 05:45:49;;;;;;;5.13;1.10;;;11.10;99.90;;;;;;5069958;28;20212;-34
2023/01/06 05:48:15;;;;;;;3.17;1.03;;;11.10;99.90;;;;;;5070770;28;20778;-34
2023/01/06 05:50:41;;;;;;;1.80;1.00;;;11.10;99.90;;;;;;5063679;28;20265;-34
2023/01/06 05:53:07;;;;;;;2.00;1.10;;;11.10;99.90;;;;;;5041954;28;20189;-34
2023/01/06 05:55:32;;;;;;;2.80;0.90;;;11.10;99.90;;;;;;5047991;28;20185;-34
2023/01/06 05:57:58;;;;;;;2.43;1.03;;;11.10;99.90;;;;;;5050657;28;20452;-34
2023/01/06 06:00:24;;;;;;;3.70;1.20;;;11.10;99.90;;;;;;5049126;28;20208;-34
2023/01/06 06:02:50;;;;;;;3.17;1.03;;;11.10;99.90;;;;;;5050473;28;20428;-34
2023/01/06 06:05:16;;;;;;;3.60;1.87;;;11.10;99.90;;;;;;5049535;28;20784;-34
2023/01/06 06:07:41;;;;;;;3.57;0.90;;;11.10;99.90;;;;;;5050728;28;20256;-34
2023/01/06 06:10:08;;;;;;;3.20;1.20;;;11.10;99.90;;;;;;5050351;28;20178;-33
2023/01/06 06:12:34;;;;;;;3.33;1.10;;;11.10;99.90;;;;;;5049271;28;20649;-34
2023/01/06 06:15:00;;;;;;;1.80;1.37;;;11.10;99.90;;;;;;5050724;28;20419;-34
2023/01/06 06:17:26;;;;;;;2.10;1.30;;;11.00;99.90;;;;;;5068422;28;20469;-34
2023/01/06 06:19:52;;;;;;;2.03;1.10;;;11.10;99.90;;;;;;5065403;28;20256;-33
2023/01/06 06:22:18;;;;;;;0.93;0.80;;;11.10;99.90;;;;;;5050695;28;20404;-33
2023/01/06 06:24:44;;;;;;;2.43;1.00;;;11.10;99.90;;;;;;5050529;28;20182;-33
2023/01/06 06:27:09;;;;;;;2.03;0.93;;;11.10;99.90;;;;;;5049272;28;21008;-33
2023/01/06 06:29:35;;;;;;;1.13;0.80;;;11.00;99.90;;;;;;5049811;28;20240;-33
2023/01/06 06:32:01;;;;;;;1.90;1.20;;;11.00;99.90;;;;;;5050259;28;20186;-33
2023/01/06 06:34:27;;;;;;;2.50;1.20;;;11.00;99.90;;;;;;5050450;28;20174;-33
2023/01/06 06:36:53;;;;;;;2.17;1.23;;;11.10;99.90;;;;;;5045799;28;20205;-33
2023/01/06 06:39:18;;;;;;;3.23;1.40;;;11.10;99.90;;;;;;5049679;28;20278;-33
2023/01/06 06:41:44;;;;;;;1.70;1.30;;;11.10;99.90;;;;;;5050276;28;20495;-33
2023/01/06 06:44:10;;;;;;;1.80;0.97;;;11.10;99.90;;;;;;5050219;28;20332;-33
2023/01/06 06:46:36;;;;;;;1.40;1.10;;;11.00;99.90;;;;;;5044053;28;20202;-34
2023/01/06 06:49:02;;;;;;;2.10;1.20;;;11.10;99.90;;;;;;5046148;28;20205;-34
2023/01/06 06:51:29;;;;;;;2.20;1.23;;;11.10;99.90;;;;;;5036083;28;20236;-34
2023/01/06 06:53:55;;;;;;;2.87;1.03;;;11.10;99.90;;;;;;5049410;28;20174;-34
2023/01/06 06:56:21;;;;;;;1.17;1.07;;;11.10;99.90;;;;;;5045090;28;20519;-34
2023/01/06 06:58:47;;;;;;;2.57;1.00;;;11.10;99.90;;;;;;5037068;28;20186;-33
2023/01/06 07:01:16;;;;;;;1.10;0.90;;;11.10;99.90;;;;;;5029846;28;20308;-34
2023/01/06 07:03:41;;;;;;;1.90;1.10;;;11.00;99.90;;;;;;5037070;28;20441;-33
2023/01/06 07:06:11;;;;;;;2.33;0.90;;;11.10;99.90;;;;;;5045413;28;20460;-33
2023/01/06 07:08:37;;;;;;;1.13;1.00;;;11.10;99.90;;;;;;5037368;28;20178;-34
2023/01/06 07:11:02;;;;;;;2.73;1.00;;;11.10;99.90;;;;;;5038280;28;20810;-33
2023/01/06 07:13:28;;;;;;;1.20;0.87;;;11.10;99.90;;;;;;5037972;28;20194;-33
2023/01/06 07:15:54;;;;;;;1.07;0.97;;;11.10;99.90;;;;;;5050717;28;20799;-33
2023/01/06 07:18:19;;;;;;;2.83;0.80;;;11.10;99.90;;;;;;5035945;28;20198;-33
2023/01/06 07:20:48;;;;;;;0.90;0.80;;;11.10;99.90;;;;;;5027441;28;20190;-33
2023/01/06 07:23:14;;;;;;;1.03;0.90;;;11.10;99.90;;;;;;5043483;28;20186;-33
2023/01/06 07:25:40;;;;;;;2.30;0.90;;;11.10;99.90;;;;;;5043492;28;20471;-33
2023/01/06 07:28:07;;;;;;;3.47;1.40;;;11.10;99.90;;;;;;5038928;28;20436;-33
2023/01/06 07:30:35;;;;;;;1.20;0.70;;;11.10;99.90;;;;;;5040073;28;20190;-33
2023/01/06 07:33:02;;;;;;;2.07;1.10;;;11.00;99.90;;;;;;5029546;28;20433;-33
2023/01/06 07:35:28;;;;;;;1.93;1.00;;;11.10;99.90;;;;;;5043726;28;20447;-33
2023/01/06 07:37:54;;;;;;;2.00;0.87;;;11.00;99.90;;;;;;5049321;28;20425;-33
2023/01/06 07:40:19;;;;;;;3.30;1.00;;;11.10;99.90;;;;;;5029206;28;20456;-33
2023/01/06 07:42:46;;;;;;;2.07;1.37;;;11.00;99.90;;;;;;5039693;28;20192;-33
2023/01/06 07:45:12;;;;;;;2.60;1.50;;;11.10;99.90;;;;;;5045707;28;20536;-33
2023/01/06 07:47:38;;;;;;;1.20;0.80;;;11.10;99.90;;;;;;5033360;28;20432;-33
2023/01/06 07:50:05;;;;;;;2.53;1.10;;;11.10;99.90;;;;;;5052951;28;20546;-33
2023/01/06 07:52:30;;;;;;;1.27;0.80;;;11.10;99.90;;;;;;5053226;28;20189;-33
2023/01/06 07:54:58;;;;;;;1.87;1.10;;;11.10;99.90;;;;;;5053333;28;20423;-33
2023/01/06 07:57:25;;;;;;;1.37;0.90;;;11.10;99.90;;;;;;5052937;28;20185;-33
2023/01/06 07:59:51;;;;;;;1.20;0.93;;;11.00;99.90;;;;;;5052410;28;20440;-33
2023/01/06 08:02:16;;;;;;;2.27;1.27;;;11.10;99.90;;;;;;5038655;28;21104;-33
2023/01/06 08:04:42;;;;;;;1.10;0.67;;;11.10;99.90;;;;;;5036670;28;20572;-34
2023/01/06 08:07:08;;;;;;;1.00;0.90;;;11.10;99.90;;;;;;5037641;28;20420;-34
2023/01/06 08:09:33;;;;;;;1.23;1.07;;;11.10;99.90;;;;;;5032495;28;20186;-33
2023/01/06 08:11:59;;;;;;;1.33;0.73;;;11.10;99.90;;;;;;5032643;28;20201;-33
2023/01/06 08:14:25;;;;;;;1.07;0.70;;;11.10;99.90;;;;;;5032770;28;20194;-34
2023/01/06 08:16:51;;;;;;;1.60;1.13;;;11.10;99.90;;;;;;5032801;28;20428;-33
2023/01/06 08:19:16;;;;;;;3.37;1.03;;;11.10;99.90;;;;;;5032200;28;20197;-33
2023/01/06 08:21:42;;;;;;;4.33;0.70;;;11.10;99.90;;;;;;5031834;28;20206;-33
2023/01/06 08:24:08;;;;;;;0.90;0.80;;;11.10;99.90;;;;;;5032693;28;20233;-33
2023/01/06 08:26:34;;;;;;;3.10;1.27;;;11.10;99.90;;;;;;5032269;28;20226;-33
2023/01/06 08:28:59;;;;;;;2.00;1.00;;;11.20;99.90;;;;;;5031930;28;20187;-33
2023/01/06 08:31:25;;;;;;;2.60;0.90;;;11.10;99.90;;;;;;5031288;28;20218;-33
2023/01/06 08:33:52;;;;;;;1.33;0.80;;;11.10;99.90;;;;;;5032677;28;20218;-33
2023/01/06 08:36:19;;;;;;;1.23;0.97;;;11.10;99.90;;;;;;5033116;28;20194;-34
2023/01/06 08:38:46;;;;;;;2.50;1.00;;;11.10;99.90;;;;;;5052341;28;20432;-34
2023/01/06 08:41:11;;;;;;;1.23;1.03;;;11.20;99.90;;;;;;5051467;28;20436;-34
2023/01/06 08:43:39;;;;;;;3.67;1.03;;;11.10;99.90;;;;;;5052483;28;20439;-33
2023/01/06 08:46:06;;;;;;;1.97;1.57;;;11.20;99.90;;;;;;5052190;28;20567;-33
2023/01/06 08:48:34;;;;;;;3.03;1.10;;;11.20;99.90;;;;;;5052419;28;21309;-33
2023/01/06 08:51:09;;;;;;;3.00;1.03;;;11.20;99.90;;;;;;5051543;28;20428;-33
2023/01/06 08:53:34;;;;;;;2.20;1.00;;;11.20;99.90;;;;;;5051903;28;20766;-33
2023/01/06 08:56:00;;;;;;;1.57;0.80;;;11.10;99.90;;;;;;5051966;28;20438;-33
2023/01/06 08:58:26;;;;;;;1.50;0.90;;;11.20;99.90;;;;;;5051923;28;20198;-33
2023/01/06 09:00:51;;;;;;;1.87;0.80;;;11.10;99.90;;;;;;5051201;28;20229;-33
2023/01/06 09:03:17;;;;;;;0.80;0.80;;;11.10;99.90;;;;;;5051567;28;20205;-33
2023/01/06 09:05:50;;;;;;;1.50;0.90;;;11.20;99.90;;;;;;5051777;28;20205;-33
2023/01/06 09:08:15;;;;;;;1.93;1.07;;;11.10;99.90;;;;;;5051701;28;20256;-33
2023/01/06 09:10:41;;;;;;;4.27;0.97;;;11.20;99.90;;;;;;5050156;28;20927;-33
2023/01/06 09:13:07;;;;;;;1.37;1.03;;;11.20;99.90;;;;;;5051739;28;20273;-33
2023/01/06 09:15:33;;;;;;;1.03;0.87;;;11.10;99.90;;;;;;5051923;28;20197;-33
2023/01/06 09:17:58;;;;;;;2.13;1.10;;;11.20;99.90;;;;;;5051408;28;20201;-33
2023/01/06 09:20:24;;;;;;;1.90;0.80;;;11.20;99.90;;;;;;5050216;28;20243;-33
2023/01/06 09:22:49;;;;;;;1.97;1.00;;;11.10;99.90;;;;;;5051203;28;20587;-34
2023/01/06 09:25:15;;;;;;;2.00;1.00;;;11.20;99.90;;;;;;5051808;28;20190;-34
2023/01/06 09:27:41;;;;;;;0.90;0.83;;;11.20;99.90;;;;;;5051331;28;20558;-33
2023/01/06 09:30:07;;;;;;;1.50;0.80;;;11.20;99.90;;;;;;5049796;28;20197;-33
2023/01/06 09:32:33;;;;;;;2.20;0.80;;;11.30;99.90;;;;;;5051128;28;20672;-33
2023/01/06 09:34:58;;;;;;;0.90;0.80;;;11.30;99.90;;;;;;5048461;28;20436;-33
2023/01/06 09:37:24;;;;;;;1.63;1.00;;;11.30;99.90;;;;;;5031080;28;20437;-33
2023/01/06 09:39:50;;;;;;;1.10;1.00;;;11.20;99.90;;;;;;5030982;28;20220;-33
2023/01/06 09:42:46;;;;;;;1.60;1.00;;;11.20;99.90;;;;;;5031086;28;20198;-33
2023/01/06 09:45:18;;;;;;;1.40;1.00;;;11.20;99.90;;;;;;5031251;28;20190;-33
2023/01/06 09:47:50;;;;;;;1.00;0.83;;;11.20;99.90;;;;;;5030876;28;20421;-33
2023/01/06 09:50:40;;;;;;;0.70;0.70;;;11.20;99.90;;;;;;5030687;28;20982;-33
2023/01/06 09:53:14;;;;;;;2.10;1.00;;;11.20;99.90;;;;;;5029591;28;20429;-33
2023/01/06 09:55:46;;;;;;;1.20;0.80;;;11.20;99.90;;;;;;5031045;28;20454;-34
2023/01/06 09:58:20;;;;;;;4.10;0.90;;;11.20;99.90;;;;;;5030516;28;20421;-33
2023/01/06 10:00:52;;;;;;;1.60;0.80;;;11.20;99.90;;;;;;5030360;28;20425;-33
2023/01/06 10:03:25;;;;;;;2.53;1.00;;;11.20;99.90;;;;;;5033180;28;20420;-33
2023/01/06 10:06:43;;;;;;;1.50;1.00;;;11.20;99.90;;;;;;5049325;28;20494;-33
2023/01/06 10:09:53;;;;;;;0.87;0.83;;;11.20;99.90;;;;;;5045588;28;20428;-33
2023/01/06 10:12:39;;;;;;;2.07;1.80;;;11.10;99.90;;;;;;5050292;28;20499;-33
2023/01/06 10:15:21;;;;;;;2.10;1.20;;;11.20;99.90;;;;;;5050655;28;20408;-33
2023/01/06 10:18:26;;;;;;;1.57;1.40;;;11.20;99.90;;;;;;5050753;28;20418;-33
2023/01/06 10:21:05;;;;;;;2.40;1.70;;;11.10;99.90;;;;;;5048711;28;20404;-33
2023/01/06 10:23:52;;;;;;;2.30;1.20;;;11.10;99.90;;;;;;5050639;28;20412;-33
2023/01/06 10:26:31;;;;;;;1.30;1.20;;;11.10;99.90;;;;;;5049190;28;20460;-33
2023/01/06 10:29:13;;;;;;;2.00;1.30;;;11.10;99.90;;;;;;5049906;28;20412;-33
2023/01/06 10:31:42;;;;;;;1.30;1.03;;;11.10;99.90;;;;;;5050335;28;20423;-34
2023/01/06 10:34:15;;;;;;;2.30;1.50;;;11.10;99.90;;;;;;5050424;28;20415;-34
2023/01/06 10:36:43;;;;;;;1.37;1.23;;;11.10;99.90;;;;;;5032060;28;20483;-33
2023/01/06 10:39:30;;;;;;;1.30;1.20;;;11.10;99.90;;;;;;5028384;28;20418;-33
2023/01/06 10:42:54;;;;;;;1.50;1.20;;;11.10;99.90;;;;;;5030282;28;20905;-33
2023/01/06 10:44:45;;;;;;;1.70;1.30;;;11.20;99.90;;;;;;5030207;28;20425;-33
2023/01/06 10:47:37;;;;;;;1.20;1.10;;;11.20;99.90;;;;;;5030247;28;20457;-33
2023/01/06 10:50:04;;;;;;;1.43;1.30;;;11.20;99.90;;;;;;5029328;28;20418;-33
2023/01/06 10:52:31;;;;;;;1.40;1.30;;;11.20;99.90;;;;;;5030235;28;20420;-33
2023/01/06 10:55:02;;;;;;;1.63;1.43;;;11.20;99.90;;;;;;5030226;28;20415;-33
2023/01/06 10:57:34;;;;;;;1.40;1.30;;;11.20;99.90;;;;;;5030082;28;20886;-33
2023/01/06 11:00:14;;;;;;;1.47;1.37;;;11.20;99.90;;;;;;5029619;28;20417;-33
2023/01/06 11:02:49;;;;;;;2.20;1.17;;;11.20;99.90;;;;;;5028680;28;20932;-33
2023/01/06 11:05:18;;;;;;;1.40;1.10;;;11.30;99.90;;;;;;5029060;28;20472;-33
2023/01/06 11:07:56;;;;;;;2.20;1.30;;;11.30;99.90;;;;;;5029294;28;20456;-33
2023/01/06 11:10:59;;;;;;;1.50;1.40;;;11.30;99.90;;;;;;5029486;28;20413;-33
2023/01/06 11:13:33;;;;;;;2.27;1.40;;;11.30;99.90;;;;;;5029878;28;20405;-33
2023/01/06 11:16:03;;;;;;;1.47;1.37;;;11.30;99.90;;;;;;5030102;28;20413;-33
2023/01/06 11:18:33;;;;;;;2.40;1.33;;;11.30;99.90;;;;;;5030055;28;20471;-33
2023/01/06 11:21:15;;;;;;;1.73;1.60;;;11.30;99.90;;;;;;5027348;28;20421;-33
2023/01/06 11:23:43;;;;;;;1.50;1.30;;;11.30;99.90;;;;;;5033636;28;20479;-34
2023/01/06 11:26:11;;;;;;;4.03;1.43;;;11.30;99.90;;;;;;5033986;28;20509;-33
2023/01/06 11:28:48;;;;;;;2.93;1.50;;;11.40;99.90;;;;;;5033847;28;20417;-33
2023/01/06 11:31:18;;;;;;;2.07;1.37;;;11.30;99.90;;;;;;5033280;28;20432;-33
2023/01/06 11:33:56;;;;;;;1.83;1.50;;;11.40;99.90;;;;;;5033658;28;20933;-33
2023/01/06 11:36:26;;;;;;;1.40;1.30;;;11.40;99.90;;;;;;5048617;28;20835;-33
2023/01/06 11:39:01;;;;;;;1.60;1.50;;;11.40;99.90;;;;;;5053703;28;20420;-33
2023/01/06 11:41:38;;;;;;;1.40;1.30;;;11.50;99.90;;;;;;5053740;28;20498;-33
2023/01/06 11:44:22;;;;;;;1.50;1.40;;;11.50;99.90;;;;;;5053903;28;20411;-33
2023/01/06 11:46:51;;;;;;;1.87;1.20;;;11.50;99.90;;;;;;5053767;28;20543;-33
2023/01/06 11:49:38;;;;;;;2.17;1.30;;;11.50;99.90;;;;;;5052762;28;21309;-33
2023/01/06 11:52:26;;;;;;;2.17;1.40;;;11.50;99.90;;;;;;5053561;28;20427;-33
2023/01/06 11:55:05;;;;;;;3.00;1.40;;;11.50;99.90;;;;;;5053262;28;20408;-33
2023/01/06 11:57:50;;;;;;;1.73;1.40;;;11.60;99.90;;;;;;5053381;28;20582;-33
2023/01/06 12:00:21;;;;;;;1.67;1.57;;;11.60;99.90;;;;;;5052712;28;20420;-33
2023/01/06 12:03:06;;;;;;;1.97;1.77;;;11.70;99.90;;;;;;5053272;28;20423;-33
2023/01/06 12:05:56;;;;;;;2.90;1.70;;;11.70;99.90;;;;;;5053153;28;20468;-33
2023/01/06 12:08:56;;;;;;;1.83;1.50;;;11.70;99.90;;;;;;5053237;28;20412;-33
2023/01/06 12:11:49;;;;;;;1.60;1.47;;;11.70;99.90;;;;;;5052836;28;20439;-33
2023/01/06 12:14:21;;;;;;;1.67;1.57;;;11.70;99.90;;;;;;5052456;28;20511;-34
2023/01/06 12:16:59;;;;;;;3.13;1.30;;;11.70;99.90;;;;;;5053063;28;20431;-34
2023/01/06 12:19:33;;;;;;;2.50;1.57;;;11.70;99.90;;;;;;5052231;28;20458;-34
2023/01/06 12:22:00;;;;;;;1.70;1.60;;;11.70;99.90;;;;;;5052483;28;20443;-33
2023/01/06 12:24:31;;;;;;;1.83;1.70;;;11.70;99.90;;;;;;5052940;28;20409;-34
2023/01/06 12:26:59;;;;;;;4.37;1.90;;;11.80;99.90;;;;;;5052736;28;20525;-33
2023/01/06 12:29:25;;;;;;;2.47;1.63;;;11.90;99.90;;;;;;5052269;28;20408;-33
2023/01/06 12:32:01;;;;;;;1.80;1.67;;;12.00;99.90;;;;;;5052875;28;20416;-33
2023/01/06 12:34:40;;;;;;;2.87;1.70;;;12.10;99.90;;;;;;5051856;28;20199;-33
2023/01/06 12:37:45;;;;;;;2.20;1.70;;;12.10;99.90;;;;;;5031537;28;20425;-33
2023/01/06 12:40:23;;;;;;;3.30;2.03;;;12.10;99.90;;;;;;5031889;28;20421;-33
2023/01/06 12:42:52;;;;;;;2.23;1.70;;;12.10;99.90;;;;;;5032317;28;20405;-33
2023/01/06 12:45:46;;;;;;;1.90;1.70;;;12.20;99.90;;;;;;5032556;28;20519;-33
2023/01/06 12:48:56;;;;;;;2.13;1.43;;;12.10;99.90;;;;;;5032543;28;20397;-34
2023/01/06 12:51:45;;;;;;;1.43;1.30;;;12.10;99.90;;;;;;5030692;28;20452;-33
2023/01/06 12:54:24;;;;;;;2.70;1.37;;;12.10;99.90;;;;;;5032238;28;20413;-33
2023/01/06 12:57:10;;;;;;;2.43;1.30;;;12.10;99.90;;;;;;5032257;28;20425;-33
2023/01/06 12:59:54;;;;;;;1.93;1.47;;;12.10;99.90;;;;;;5031433;28;20413;-33
2023/01/06 13:02:47;;;;;;;1.53;1.37;;;12.20;99.90;;;;;;5032263;28;20488;-34
2023/01/06 13:05:18;;;;;;;3.20;1.30;;;12.20;99.90;;;;;;5032196;28;20433;-34
2023/01/06 13:08:01;;;;;;;2.07;1.40;;;12.20;99.90;;;;;;5031980;28;20504;-34
2023/01/06 13:10:38;;;;;;;1.77;1.63;;;12.20;99.90;;;;;;5031523;28;20410;-33
2023/01/06 13:13:21;;;;;;;3.10;1.60;;;12.20;99.90;;;;;;5032171;28;20405;-34